createdAt,value
2022-10-12T00:00:52.290Z,8.54
2022-10-12T00:03:22.716Z,8.53
2022-10-12T00:06:05.212Z,8.45
2022-10-12T00:08:37.120Z,8.44
2022-10-12T00:11:09.336Z,8.45
2022-10-12T00:13:39.688Z,8.49
2022-10-12T00:16:12.441Z,8.46
2022-10-12T00:18:42.739Z,8.40
2022-10-12T00:21:15.885Z,8.42
2022-10-12T00:23:46.820Z,8.44
2022-10-12T00:26:22.785Z,8.43
2022-10-12T00:28:58.881Z,8.38
2022-10-12T00:31:31.208Z,8.37
2022-10-12T00:34:04.970Z,8.36
2022-10-12T00:36:36.412Z,8.33
2022-10-12T00:39:08.883Z,8.44
2022-10-12T00:41:42.355Z,8.41
2022-10-12T00:44:38.743Z,8.34
2022-10-12T00:47:12.340Z,8.43
2022-10-12T00:49:43.981Z,8.44
2022-10-12T00:52:16.574Z,8.36
2022-10-12T00:54:49.366Z,8.35
2022-10-12T00:57:21.639Z,8.26
2022-10-12T00:59:55.005Z,8.24
2022-10-12T01:02:28.361Z,8.24
2022-10-12T01:04:59.501Z,8.20
2022-10-12T01:07:29.873Z,8.20
2022-10-12T01:10:00.445Z,8.20
2022-10-12T01:12:31.358Z,8.20
2022-10-12T01:15:02.115Z,8.17
2022-10-12T01:17:59.914Z,8.18
2022-10-12T01:20:53.358Z,8.23
2022-10-12T01:23:29.937Z,8.24
2022-10-12T01:26:35.259Z,8.14
2022-10-12T01:29:33.170Z,8.13
2022-10-12T01:32:20.909Z,8.17
2022-10-12T01:35:00.108Z,8.15
2022-10-12T01:37:36.776Z,8.08
2022-10-12T01:40:10.589Z,8.08
2022-10-12T01:42:43.319Z,8.01
2022-10-12T01:45:17.035Z,7.96
2022-10-12T01:47:52.191Z,8.00
2022-10-12T01:50:26.062Z,8.10
2022-10-12T01:53:19.245Z,8.10
2022-10-12T01:55:58.683Z,8.05
2022-10-12T01:58:53.268Z,8.04
2022-10-12T02:01:44.888Z,7.97
2022-10-12T02:04:36.522Z,7.98
2022-10-12T02:07:10.030Z,7.95
2022-10-12T02:09:41.035Z,7.90
2022-10-12T02:12:17.217Z,7.92
2022-10-12T02:14:53.163Z,7.88
2022-10-12T02:17:27.444Z,7.88
2022-10-12T02:20:00.618Z,7.88
2022-10-12T02:22:35.578Z,7.84
2022-10-12T02:25:10.994Z,7.80
2022-10-12T02:27:44.478Z,7.79
2022-10-12T02:30:15.000Z,7.80
2022-10-12T02:32:54.171Z,7.80
2022-10-12T02:35:30.435Z,7.80
2022-10-12T02:38:03.919Z,7.89
2022-10-12T02:40:39.922Z,7.90
2022-10-12T02:43:13.591Z,7.82
2022-10-12T02:45:46.612Z,7.80
2022-10-12T02:48:20.087Z,7.78
2022-10-12T02:50:52.954Z,7.74
2022-10-12T02:53:25.383Z,7.81
2022-10-12T02:56:04.290Z,7.78
2022-10-12T02:58:36.177Z,7.73
2022-10-12T03:01:06.852Z,7.67
2022-10-12T03:03:37.322Z,7.81
2022-10-12T03:06:08.163Z,7.68
2022-10-12T03:08:38.482Z,7.67
2022-10-12T03:11:11.367Z,7.66
2022-10-12T03:13:41.969Z,7.67
2022-10-12T03:16:12.901Z,7.71
2022-10-12T03:18:43.228Z,7.76
2022-10-12T03:21:13.903Z,7.68
2022-10-12T03:23:44.701Z,7.67
2022-10-12T03:26:15.100Z,7.67
2022-10-12T03:28:45.510Z,7.60
2022-10-12T03:31:15.921Z,7.57
2022-10-12T03:33:46.314Z,7.62
2022-10-12T03:36:16.728Z,7.60
2022-10-12T03:38:47.464Z,7.61
2022-10-12T03:41:17.836Z,7.64
2022-10-12T03:43:51.258Z,7.62
2022-10-12T03:46:21.880Z,7.57
2022-10-12T03:48:52.444Z,7.56
2022-10-12T03:51:23.310Z,7.58
2022-10-12T03:53:53.690Z,7.56
2022-10-12T03:56:24.076Z,7.54
2022-10-12T03:58:55.529Z,7.54
2022-10-12T04:01:26.088Z,7.55
2022-10-12T04:03:56.543Z,7.51
2022-10-12T04:06:27.007Z,7.54
2022-10-12T04:08:57.322Z,7.54
2022-10-12T04:11:27.715Z,7.54
2022-10-12T04:13:58.195Z,7.49
2022-10-12T04:16:31.034Z,7.53
2022-10-12T04:19:00.530Z,7.55
2022-10-12T04:21:32.435Z,7.58
2022-10-12T04:24:02.725Z,7.54
2022-10-12T04:26:33.250Z,7.50
2022-10-12T04:29:03.716Z,7.46
2022-10-12T04:31:34.042Z,7.49
2022-10-12T04:34:04.405Z,7.49
2022-10-12T04:36:34.796Z,7.50
2022-10-12T04:39:05.215Z,7.45
2022-10-12T04:41:35.819Z,7.46
2022-10-12T04:44:06.677Z,7.50
2022-10-12T04:46:37.012Z,7.42
2022-10-12T04:49:07.390Z,7.39
2022-10-12T04:51:37.774Z,7.38
2022-10-12T04:54:08.160Z,7.40
2022-10-12T04:56:38.498Z,7.42
2022-10-12T04:59:09.202Z,7.39
2022-10-12T05:01:39.753Z,7.37
2022-10-12T05:04:10.145Z,7.38
2022-10-12T05:06:40.475Z,7.30
2022-10-12T05:09:14.486Z,7.30
2022-10-12T05:11:43.149Z,7.32
2022-10-12T05:14:13.544Z,7.30
2022-10-12T05:16:43.988Z,7.34
2022-10-12T05:19:14.280Z,7.29
2022-10-12T05:21:44.688Z,7.30
2022-10-12T05:24:15.131Z,7.33
2022-10-12T05:26:45.476Z,7.28
2022-10-12T05:29:15.813Z,7.32
2022-10-12T05:31:46.213Z,7.30
2022-10-12T05:34:16.618Z,7.32
2022-10-12T05:36:47.694Z,7.30
2022-10-12T05:39:17.923Z,7.36
2022-10-12T05:41:48.241Z,7.36
2022-10-12T05:44:18.566Z,7.34
2022-10-12T05:46:48.972Z,7.31
2022-10-12T05:49:19.398Z,7.38
2022-10-12T05:51:49.791Z,7.42
2022-10-12T05:54:20.101Z,7.41
2022-10-12T05:56:52.498Z,7.40
2022-10-12T05:59:22.570Z,7.36
2022-10-12T06:01:53.208Z,7.41
2022-10-12T06:04:23.679Z,7.42
2022-10-12T06:06:54.076Z,7.39
2022-10-12T06:09:24.433Z,7.46
2022-10-12T06:11:56.395Z,7.48
2022-10-12T06:14:26.765Z,7.48
2022-10-12T06:16:57.144Z,7.57
2022-10-12T06:19:27.534Z,7.58
2022-10-12T06:21:58.569Z,7.62
2022-10-12T06:24:28.991Z,7.64
2022-10-12T06:26:59.358Z,7.66
2022-10-12T06:29:29.701Z,7.68
2022-10-12T06:32:00.094Z,7.69
2022-10-12T06:34:30.737Z,7.71
2022-10-12T06:37:02.148Z,7.74
2022-10-12T06:39:32.806Z,7.78
2022-10-12T06:42:03.370Z,7.76
2022-10-12T06:44:33.694Z,7.85
2022-10-12T06:47:04.008Z,7.86
2022-10-12T06:49:34.307Z,7.88
2022-10-12T06:52:05.022Z,7.96
2022-10-12T06:54:35.391Z,8.00
2022-10-12T06:57:07.671Z,8.08
2022-10-12T06:59:39.199Z,8.09
2022-10-12T07:02:12.618Z,8.18
2022-10-12T07:04:43.016Z,8.28
2022-10-12T07:07:13.418Z,8.36
2022-10-12T07:09:43.773Z,8.36
2022-10-12T07:12:14.102Z,8.46
2022-10-12T07:14:44.416Z,8.46
2022-10-12T07:17:14.859Z,8.52
2022-10-12T07:19:45.242Z,8.55
2022-10-12T07:22:15.701Z,8.67
2022-10-12T07:24:46.007Z,8.70
2022-10-12T07:27:16.748Z,8.77
2022-10-12T07:29:47.145Z,8.78
2022-10-12T07:32:17.566Z,8.87
2022-10-12T07:34:47.970Z,9.02
2022-10-12T07:37:18.390Z,9.11
2022-10-12T07:39:49.503Z,9.16
2022-10-12T07:42:19.878Z,9.24
2022-10-12T07:44:50.166Z,9.34
2022-10-12T07:47:20.534Z,9.39
2022-10-12T07:49:51.401Z,9.62
2022-10-12T07:52:21.765Z,9.63
2022-10-12T07:54:52.074Z,9.75
2022-10-12T07:57:22.423Z,9.86
2022-10-12T07:59:52.666Z,9.98
2022-10-12T08:02:23.043Z,10.06
2022-10-12T08:04:53.525Z,10.08
2022-10-12T08:07:23.959Z,10.16
2022-10-12T08:09:54.646Z,10.29
2022-10-12T08:12:25.424Z,10.35
2022-10-12T08:14:55.892Z,10.41
2022-10-12T08:17:26.589Z,10.55
2022-10-12T08:19:56.920Z,10.58
2022-10-12T08:22:27.405Z,10.60
2022-10-12T08:24:57.749Z,10.68
2022-10-12T08:27:31.089Z,10.77
2022-10-12T08:30:01.447Z,10.77
2022-10-12T08:32:33.201Z,10.88
2022-10-12T08:35:03.570Z,11.03
2022-10-12T08:37:33.885Z,11.11
2022-10-12T08:40:04.346Z,11.15
2022-10-12T08:42:44.416Z,11.21
2022-10-12T08:45:27.484Z,11.42
2022-10-12T08:47:58.826Z,11.44
2022-10-12T08:50:32.302Z,11.53
2022-10-12T08:53:07.352Z,11.59
2022-10-12T08:55:40.867Z,11.64
2022-10-12T08:58:20.869Z,11.68
2022-10-12T09:01:01.656Z,11.81
2022-10-12T09:03:49.995Z,11.88
2022-10-12T09:06:23.072Z,11.93
2022-10-12T09:09:11.597Z,12.10
2022-10-12T09:11:47.548Z,12.20
2022-10-12T09:14:21.293Z,12.72
2022-10-12T09:16:54.237Z,13.24
2022-10-12T09:19:39.458Z,14.02
2022-10-12T09:22:12.898Z,14.48
2022-10-12T09:24:43.292Z,14.29
2022-10-12T09:27:16.623Z,14.24
2022-10-12T09:29:50.155Z,14.68
2022-10-12T09:32:41.674Z,15.62
2022-10-12T09:35:15.961Z,17.38
2022-10-12T09:37:49.749Z,18.08
2022-10-12T09:40:30.498Z,18.00
2022-10-12T09:43:03.142Z,17.74
2022-10-12T09:45:37.236Z,16.88
2022-10-12T09:48:24.815Z,16.22
2022-10-12T09:51:03.705Z,15.85
2022-10-12T09:53:39.803Z,16.14
2022-10-12T09:56:16.734Z,16.72
2022-10-12T09:58:54.399Z,16.84
2022-10-12T10:01:31.249Z,16.42
2022-10-12T10:04:10.990Z,15.26
2022-10-12T10:06:44.308Z,15.16
2022-10-12T10:09:29.861Z,14.82
2022-10-12T10:12:03.357Z,14.85
2022-10-12T10:14:34.562Z,14.93
2022-10-12T10:17:05.127Z,15.03
2022-10-12T10:19:35.772Z,14.97
2022-10-12T10:22:07.159Z,14.85
2022-10-12T10:24:37.398Z,14.91
2022-10-12T10:27:08.667Z,14.88
2022-10-12T10:29:43.729Z,15.23
2022-10-12T10:32:30.117Z,15.16
2022-10-12T10:35:05.846Z,15.00
2022-10-12T10:37:36.661Z,14.73
2022-10-12T10:40:08.253Z,14.81
2022-10-12T10:42:38.632Z,14.98
2022-10-12T10:45:11.114Z,14.96
2022-10-12T10:47:46.530Z,15.08
2022-10-12T10:50:31.700Z,14.95
2022-10-12T10:53:05.494Z,15.14
2022-10-12T10:55:47.717Z,15.22
2022-10-12T10:58:30.261Z,15.80
2022-10-12T11:01:03.725Z,17.46
2022-10-12T11:03:56.725Z,18.56
2022-10-12T11:06:41.296Z,18.20
2022-10-12T11:09:23.250Z,18.21
2022-10-12T11:11:57.402Z,17.59
2022-10-12T11:14:33.637Z,17.44
2022-10-12T11:17:10.031Z,17.10
2022-10-12T11:19:55.560Z,17.66
2022-10-12T11:22:39.497Z,17.08
2022-10-12T11:25:28.247Z,16.40
2022-10-12T11:27:58.908Z,18.15
2022-10-12T11:30:32.349Z,20.21
2022-10-12T11:33:08.556Z,21.90
2022-10-12T11:35:46.776Z,22.12
2022-10-12T11:38:32.663Z,22.06
2022-10-12T11:41:35.043Z,23.96
2022-10-12T11:44:10.148Z,24.16
2022-10-12T11:46:43.583Z,21.42
2022-10-12T11:49:32.066Z,21.89
2022-10-12T11:52:05.462Z,22.71
2022-10-12T11:54:50.919Z,23.70
2022-10-12T11:57:24.289Z,23.94
2022-10-12T12:00:03.627Z,23.64
2022-10-12T12:02:59.648Z,24.16
2022-10-12T12:05:32.469Z,22.26
2022-10-12T12:08:02.829Z,20.62
2022-10-12T12:10:37.114Z,19.80
2022-10-12T12:13:13.370Z,19.93
2022-10-12T12:15:46.638Z,18.95
2022-10-12T12:18:19.846Z,18.80
2022-10-12T12:21:02.543Z,18.22
2022-10-12T12:23:54.164Z,17.78
2022-10-12T12:26:27.601Z,17.38
2022-10-12T12:29:13.316Z,17.31
2022-10-12T12:31:43.834Z,16.66
2022-10-12T12:34:18.120Z,16.61
2022-10-12T12:36:52.003Z,16.34
2022-10-12T12:39:36.317Z,16.34
2022-10-12T12:42:11.112Z,16.34
2022-10-12T12:44:44.591Z,16.17
2022-10-12T12:47:43.831Z,16.25
2022-10-12T12:50:00.498Z,16.22
2022-10-12T12:52:41.526Z,16.04
2022-10-12T12:55:21.165Z,16.07
2022-10-12T12:58:03.637Z,15.76
2022-10-12T13:01:04.505Z,16.04
2022-10-12T13:03:52.899Z,16.09
2022-10-12T13:06:29.254Z,15.98
2022-10-12T13:09:17.999Z,15.98
2022-10-12T13:12:12.692Z,15.70
2022-10-12T13:14:58.073Z,15.90
2022-10-12T13:17:43.701Z,15.88
2022-10-12T13:20:22.892Z,16.02
2022-10-12T13:22:57.760Z,16.03
2022-10-12T13:25:34.283Z,15.75
2022-10-12T13:28:07.746Z,15.80
2022-10-12T13:30:41.202Z,15.62
2022-10-12T13:33:25.176Z,15.52
2022-10-12T13:35:59.742Z,15.56
2022-10-12T13:38:30.888Z,15.53
2022-10-12T13:41:13.613Z,15.42
2022-10-12T13:43:55.096Z,15.54
2022-10-12T13:46:45.799Z,15.55
2022-10-12T13:49:28.456Z,15.51
2022-10-12T13:52:04.503Z,15.55
2022-10-12T13:54:47.404Z,15.56
2022-10-12T13:57:41.539Z,15.63
2022-10-12T14:00:25.132Z,15.46
2022-10-12T14:02:58.638Z,15.54
2022-10-12T14:05:33.985Z,15.56
2022-10-12T14:08:13.487Z,15.64
2022-10-12T14:10:49.480Z,15.49
2022-10-12T14:13:34.690Z,15.25
2022-10-12T14:16:07.209Z,15.11
2022-10-12T14:18:42.863Z,15.14
2022-10-12T14:21:25.698Z,15.12
2022-10-12T14:24:01.881Z,15.06
2022-10-12T14:26:40.862Z,15.12
2022-10-12T14:29:29.325Z,15.05
2022-10-12T14:32:02.374Z,15.02
2022-10-12T14:34:47.753Z,15.04
2022-10-12T14:37:24.089Z,15.00
2022-10-12T14:39:56.657Z,15.00
2022-10-12T14:42:35.689Z,15.03
2022-10-12T14:45:09.520Z,15.03
2022-10-12T14:47:42.945Z,14.94
2022-10-12T14:50:16.424Z,14.92
2022-10-12T14:52:52.953Z,14.86
2022-10-12T14:55:26.308Z,14.80
2022-10-12T14:57:56.880Z,14.74
2022-10-12T15:00:30.402Z,14.71
2022-10-12T15:03:01.642Z,14.69
2022-10-12T15:05:33.830Z,14.62
2022-10-12T15:08:06.107Z,14.62
2022-10-12T15:10:37.656Z,14.60
2022-10-12T15:13:08.339Z,14.56
2022-10-12T15:15:42.376Z,14.60
2022-10-12T15:18:12.824Z,14.50
2022-10-12T15:20:49.002Z,14.43
2022-10-12T15:23:15.591Z,14.53
2022-10-12T15:25:54.726Z,14.44
2022-10-12T15:28:25.361Z,14.42
2022-10-12T15:31:17.573Z,14.29
2022-10-12T15:33:30.029Z,14.30
2022-10-12T15:36:00.449Z,14.24
2022-10-12T15:38:30.840Z,14.18
2022-10-12T15:41:01.220Z,14.15
2022-10-12T15:43:32.993Z,14.10
2022-10-12T15:46:04.068Z,14.02
2022-10-12T15:48:34.427Z,13.91
2022-10-12T15:51:07.896Z,13.84
2022-10-12T15:53:38.380Z,13.72
2022-10-12T15:56:12.231Z,13.64
2022-10-12T15:58:42.606Z,13.61
2022-10-12T16:01:18.926Z,13.54
2022-10-12T16:03:50.373Z,13.52
2022-10-12T16:06:21.444Z,13.43
2022-10-12T16:08:51.955Z,13.44
2022-10-12T16:11:22.658Z,13.42
2022-10-12T16:13:56.759Z,13.36
2022-10-12T16:16:25.419Z,13.28
2022-10-12T16:18:55.728Z,13.18
2022-10-12T16:21:26.138Z,13.16
2022-10-12T16:23:56.855Z,13.10
2022-10-12T16:26:27.329Z,12.97
2022-10-12T16:28:58.493Z,12.92
2022-10-12T16:31:34.144Z,12.87
2022-10-12T16:34:04.659Z,12.81
2022-10-12T16:36:35.174Z,12.78
2022-10-12T16:39:05.489Z,12.76
2022-10-12T16:41:35.837Z,12.72
2022-10-12T16:44:06.137Z,12.72
2022-10-12T16:46:37.699Z,12.69
2022-10-12T16:49:08.010Z,12.66
2022-10-12T16:51:38.878Z,12.60
2022-10-12T16:54:09.281Z,12.58
2022-10-12T16:56:41.396Z,12.51
2022-10-12T16:59:11.971Z,12.52
2022-10-12T17:01:42.846Z,12.49
2022-10-12T17:04:14.034Z,12.48
2022-10-12T17:06:44.689Z,12.44
2022-10-12T17:09:15.687Z,12.48
2022-10-12T17:11:46.089Z,12.46
2022-10-12T17:14:17.576Z,12.44
2022-10-12T17:16:52.112Z,12.39
2022-10-12T17:19:32.354Z,12.35
2022-10-12T17:22:04.506Z,12.40
2022-10-12T17:24:37.281Z,12.31
2022-10-12T17:27:11.103Z,12.27
2022-10-12T17:29:44.523Z,12.17
2022-10-12T17:32:15.144Z,12.18
2022-10-12T17:34:46.083Z,12.16
2022-10-12T17:37:16.826Z,12.12
2022-10-12T17:39:48.378Z,12.08
2022-10-12T17:42:20.579Z,12.01
2022-10-12T17:44:51.178Z,11.96
2022-10-12T17:47:21.527Z,11.94
2022-10-12T17:49:52.019Z,11.84
2022-10-12T17:52:22.339Z,11.82
2022-10-12T17:54:52.773Z,11.76
2022-10-12T17:57:23.147Z,11.77
2022-10-12T17:59:55.114Z,11.77
2022-10-12T18:02:25.473Z,11.76
2022-10-12T18:04:55.823Z,11.74
2022-10-12T18:07:26.203Z,11.68
2022-10-12T18:12:28.953Z,11.63
2022-10-12T18:14:59.487Z,11.62
2022-10-12T18:17:30.412Z,11.58
2022-10-12T18:20:01.054Z,11.58
2022-10-12T18:22:31.434Z,11.58
2022-10-12T18:25:01.837Z,11.59
2022-10-12T18:27:32.236Z,11.52
2022-10-12T18:30:03.175Z,11.50
2022-10-12T18:32:33.601Z,11.43
2022-10-12T18:35:04.096Z,11.41
2022-10-12T18:37:34.470Z,11.44
2022-10-12T18:40:05.414Z,11.36
2022-10-12T18:42:35.841Z,11.32
2022-10-12T18:45:06.721Z,11.36
2022-10-12T18:47:38.335Z,11.31
2022-10-12T18:50:09.704Z,11.35
2022-10-12T18:52:40.080Z,11.28
2022-10-12T18:55:10.691Z,11.30
2022-10-12T18:57:41.177Z,11.30
2022-10-12T19:00:12.268Z,11.36
2022-10-12T19:02:42.581Z,11.30
2022-10-12T19:05:12.938Z,11.28
2022-10-12T19:07:43.255Z,11.28
2022-10-12T19:10:13.588Z,11.22
2022-10-12T19:12:45.876Z,11.20
2022-10-12T19:15:16.170Z,11.30
2022-10-12T19:17:46.950Z,11.26
2022-10-12T19:20:17.407Z,11.24
2022-10-12T19:22:47.782Z,11.25
2022-10-12T19:25:18.105Z,11.21
2022-10-12T19:27:48.357Z,11.19
2022-10-12T19:30:18.899Z,11.19
2022-10-12T19:32:49.539Z,11.10
2022-10-12T19:35:20.537Z,11.10
2022-10-12T19:37:51.104Z,11.06
2022-10-12T19:40:21.592Z,11.05
2022-10-12T19:42:51.995Z,10.98
2022-10-12T19:45:22.385Z,11.00
2022-10-12T19:47:52.734Z,10.96
2022-10-12T19:50:23.221Z,10.94
2022-10-12T19:52:53.617Z,10.92
2022-10-12T19:55:24.023Z,10.88
2022-10-12T19:57:54.413Z,10.86
2022-10-12T20:00:24.746Z,10.82
2022-10-12T20:02:55.143Z,10.88
2022-10-12T20:05:25.561Z,10.84
2022-10-12T20:07:55.909Z,10.79
2022-10-12T20:10:26.318Z,10.82
2022-10-12T20:12:56.761Z,10.72
2022-10-12T20:15:27.160Z,10.73
2022-10-12T20:17:57.891Z,10.70
2022-10-12T20:20:28.360Z,10.70
2022-10-12T20:22:58.747Z,10.71
2022-10-12T20:25:29.220Z,10.71
2022-10-12T20:28:01.290Z,10.71
2022-10-12T20:30:31.788Z,10.74
2022-10-12T20:33:02.245Z,10.82
2022-10-12T20:35:33.282Z,10.80
2022-10-12T20:38:04.170Z,10.83
2022-10-12T20:40:34.576Z,10.80
2022-10-12T20:43:05.135Z,10.84
2022-10-12T20:45:37.033Z,10.78
2022-10-12T20:48:07.673Z,10.74
2022-10-12T20:50:38.679Z,10.70
2022-10-12T20:53:09.061Z,10.68
2022-10-12T20:55:42.415Z,10.70
2022-10-12T20:58:12.829Z,10.66
2022-10-12T21:00:43.265Z,10.65
2022-10-12T21:03:13.734Z,10.60
2022-10-12T21:05:44.088Z,10.58
2022-10-12T21:08:14.426Z,10.54
2022-10-12T21:10:49.054Z,10.52
2022-10-12T21:13:19.567Z,10.50
2022-10-12T21:15:56.096Z,10.46
2022-10-12T21:18:27.081Z,10.44
2022-10-12T21:21:08.605Z,10.43
2022-10-12T21:23:40.236Z,10.41
2022-10-12T21:26:16.836Z,10.38
2022-10-12T21:28:48.108Z,10.36
2022-10-12T21:31:19.408Z,10.34
2022-10-12T21:33:49.779Z,10.36
2022-10-12T21:36:22.822Z,10.29
2022-10-12T21:38:53.461Z,10.30
2022-10-12T21:41:26.129Z,10.23
2022-10-12T21:43:57.253Z,10.22
2022-10-12T21:46:30.287Z,10.20
2022-10-12T21:49:01.844Z,10.22
2022-10-12T21:51:32.974Z,10.17
2022-10-12T21:54:04.907Z,10.18
2022-10-12T21:56:37.006Z,10.14
2022-10-12T21:59:07.671Z,10.12
2022-10-12T22:01:41.527Z,10.17
2022-10-12T22:04:14.905Z,10.10
2022-10-12T22:06:45.336Z,10.08
2022-10-12T22:09:19.204Z,10.02
2022-10-12T22:11:50.228Z,10.06
2022-10-12T22:14:20.852Z,9.98
2022-10-12T22:16:51.317Z,9.98
2022-10-12T22:19:21.775Z,9.94
2022-10-12T22:21:53.035Z,9.95
2022-10-12T22:24:23.429Z,9.93
2022-10-12T22:26:53.815Z,9.88
2022-10-12T22:29:24.124Z,9.88
2022-10-12T22:31:54.474Z,9.82
2022-10-12T22:34:24.776Z,9.80
2022-10-12T22:36:55.274Z,9.82
2022-10-12T22:39:26.342Z,9.79
2022-10-12T22:41:56.721Z,9.72
2022-10-12T22:44:27.124Z,9.66
2022-10-12T22:46:57.504Z,9.66
2022-10-12T22:49:27.898Z,9.63
2022-10-12T22:51:58.346Z,9.66
2022-10-12T22:54:28.738Z,9.62
2022-10-12T22:56:59.503Z,9.56
2022-10-12T22:59:29.863Z,9.56
2022-10-12T23:02:00.186Z,9.54
2022-10-12T23:04:30.578Z,9.46
2022-10-12T23:07:00.900Z,9.48
2022-10-12T23:09:31.268Z,9.43
2022-10-12T23:12:01.575Z,9.41
2022-10-12T23:14:31.971Z,9.38
2022-10-12T23:17:02.680Z,9.40
2022-10-12T23:19:32.992Z,9.42
2022-10-12T23:22:03.374Z,9.35
2022-10-12T23:24:33.738Z,9.36
2022-10-12T23:27:04.141Z,9.36
2022-10-12T23:29:34.695Z,9.36
2022-10-12T23:32:05.416Z,9.33
2022-10-12T23:34:35.760Z,9.34
2022-10-12T23:37:06.057Z,9.29
2022-10-12T23:39:37.014Z,9.28
2022-10-12T23:42:07.413Z,9.26
2022-10-12T23:44:37.742Z,9.27
2022-10-12T23:47:08.151Z,9.17
2022-10-12T23:49:39.826Z,9.16
2022-10-12T23:52:10.138Z,9.12
2022-10-12T23:54:40.538Z,9.08
2022-10-12T23:57:28.148Z,9.10
2022-10-12T23:59:42.944Z,9.07
